createdAt,value
2018-12-27T00:00:16.982Z,41.37
2018-12-27T00:01:17.160Z,41.39
2018-12-27T00:02:17.225Z,41.36
2018-12-27T00:03:17.074Z,41.4
2018-12-27T00:04:17.372Z,41.42
2018-12-27T00:05:16.989Z,41.4
2018-12-27T00:06:16.955Z,41.38
2018-12-27T00:07:17.280Z,41.4
2018-12-27T00:08:17.007Z,41.38
2018-12-27T00:09:17.031Z,41.37
2018-12-27T00:10:16.864Z,41.38
2018-12-27T00:11:17.123Z,41.39
2018-12-27T00:12:17.183Z,41.42
2018-12-27T00:13:17.183Z,41.34
2018-12-27T00:14:17.038Z,41.41
2018-12-27T00:15:17.097Z,41.45
2018-12-27T00:16:17.588Z,41.35
2018-12-27T00:17:17.182Z,41.46
2018-12-27T00:18:17.220Z,41.35
2018-12-27T00:19:16.969Z,41.34
2018-12-27T00:20:18.050Z,41.38
2018-12-27T00:21:16.987Z,41.34
2018-12-27T00:22:17.091Z,41.4
2018-12-27T00:23:17.165Z,41.28
2018-12-27T00:24:17.038Z,41.39
2018-12-27T00:25:17.044Z,41.37
2018-12-27T00:26:17.132Z,41.41
2018-12-27T00:27:17.568Z,41.41
2018-12-27T00:28:17.453Z,41.37
2018-12-27T00:29:17.377Z,41.4
2018-12-27T00:30:17.639Z,41.48
2018-12-27T00:31:17.323Z,41.4
2018-12-27T00:32:17.297Z,41.47
2018-12-27T00:33:17.395Z,41.38
2018-12-27T00:34:16.987Z,41.42
2018-12-27T00:35:17.480Z,41.44
2018-12-27T00:36:16.865Z,41.39
2018-12-27T00:37:17.019Z,41.37
2018-12-27T00:38:17.614Z,41.43
2018-12-27T00:39:17.446Z,41.42
2018-12-27T00:40:17.099Z,41.4
2018-12-27T00:41:16.881Z,41.35
2018-12-27T00:42:16.917Z,41.51
2018-12-27T00:43:17.075Z,41.41
2018-12-27T00:44:17.673Z,41.4
2018-12-27T00:45:17.518Z,41.42
2018-12-27T00:46:17.088Z,41.4
2018-12-27T00:47:17.486Z,41.44
2018-12-27T00:48:17.096Z,41.44
2018-12-27T00:49:16.863Z,41.37
2018-12-27T00:50:17.213Z,41.48
2018-12-27T00:51:17.143Z,41.42
2018-12-27T00:52:17.520Z,41.4
2018-12-27T00:53:17.340Z,41.4
2018-12-27T00:54:17.147Z,41.41
2018-12-27T00:55:17.167Z,41.31
2018-12-27T00:56:17.484Z,41.36
2018-12-27T00:57:17.057Z,41.51
2018-12-27T00:58:16.923Z,41.44
2018-12-27T00:59:17.273Z,41.52
2018-12-27T01:00:16.818Z,41.41
2018-12-27T01:01:17.394Z,41.41
2018-12-27T01:02:17.183Z,41.41
2018-12-27T01:03:16.897Z,41.44
2018-12-27T01:04:17.048Z,41.37
2018-12-27T01:05:17.143Z,41.5
2018-12-27T01:06:16.973Z,41.46
2018-12-27T01:07:16.965Z,41.5
2018-12-27T01:08:16.826Z,41.43
2018-12-27T01:09:17.028Z,41.43
2018-12-27T01:10:17.370Z,41.45
2018-12-27T01:11:16.890Z,41.5
2018-12-27T01:12:17.063Z,41.41
2018-12-27T01:13:17.161Z,41.52
2018-12-27T01:14:16.959Z,41.43
2018-12-27T01:15:17.218Z,41.4
2018-12-27T01:16:17.489Z,41.33
2018-12-27T01:17:17.054Z,41.41
2018-12-27T01:18:17.006Z,41.33
2018-12-27T01:19:16.911Z,41.44
2018-12-27T01:20:17.324Z,41.47
2018-12-27T01:21:17.435Z,41.38
2018-12-27T01:22:17.835Z,41.43
2018-12-27T01:23:17.911Z,41.52
2018-12-27T01:24:17.574Z,41.37
2018-12-27T01:25:17.246Z,41.45
2018-12-27T01:26:17.011Z,41.46
2018-12-27T01:27:17.256Z,41.46
2018-12-27T01:28:17.015Z,41.43
2018-12-27T01:29:17.124Z,41.41
2018-12-27T01:30:17.711Z,41.47
2018-12-27T01:31:17.299Z,41.39
2018-12-27T01:32:17.297Z,41.55
2018-12-27T01:33:19.138Z,41.49
2018-12-27T01:34:17.001Z,41.41
2018-12-27T01:35:17.045Z,41.43
2018-12-27T01:36:17.015Z,41.5
2018-12-27T01:37:17.043Z,41.5
2018-12-27T01:38:16.951Z,41.46
2018-12-27T01:39:17.032Z,41.5
2018-12-27T01:40:17.058Z,41.47
2018-12-27T01:41:16.916Z,41.56
2018-12-27T01:42:17.116Z,41.54
2018-12-27T01:43:16.792Z,41.51
2018-12-27T01:44:16.976Z,41.48
2018-12-27T01:45:17.133Z,41.49
2018-12-27T01:46:16.827Z,41.41
2018-12-27T01:47:17.088Z,41.52
2018-12-27T01:48:17.038Z,41.47
2018-12-27T01:49:16.928Z,41.45
2018-12-27T01:50:17.088Z,41.45
2018-12-27T01:51:17.180Z,41.49
2018-12-27T01:52:17.021Z,41.5
2018-12-27T01:53:17.101Z,41.35
2018-12-27T01:54:17.052Z,41.55
2018-12-27T01:55:16.901Z,41.52
2018-12-27T01:56:16.950Z,41.48
2018-12-27T01:57:17.063Z,41.51
2018-12-27T01:58:16.978Z,41.49
2018-12-27T01:59:17.180Z,41.48
2018-12-27T02:00:17.211Z,41.52
2018-12-27T02:01:17.540Z,41.48
2018-12-27T02:02:17.050Z,41.52
2018-12-27T02:03:17.893Z,41.48
2018-12-27T02:04:17.937Z,41.42
2018-12-27T02:05:17.335Z,41.51
2018-12-27T02:06:17.254Z,41.47
2018-12-27T02:07:16.944Z,41.47
2018-12-27T02:08:17.369Z,41.54
2018-12-27T02:09:17.274Z,41.47
2018-12-27T02:10:17.809Z,41.57
2018-12-27T02:11:17.499Z,41.49
2018-12-27T02:12:17.200Z,41.47
2018-12-27T02:13:17.076Z,41.47
2018-12-27T02:14:17.636Z,41.54
2018-12-27T02:15:17.233Z,41.48
2018-12-27T02:16:17.740Z,41.46
2018-12-27T02:17:16.929Z,41.51
2018-12-27T02:18:17.034Z,41.45
2018-12-27T02:19:17.026Z,41.46
2018-12-27T02:20:17.336Z,41.45
2018-12-27T02:21:17.855Z,41.5
2018-12-27T02:22:17.555Z,41.47
2018-12-27T02:23:17.454Z,41.45
2018-12-27T02:24:17.266Z,41.46
2018-12-27T02:25:17.701Z,41.44
2018-12-27T02:26:16.844Z,41.45
2018-12-27T02:27:17.089Z,41.43
2018-12-27T02:28:16.962Z,41.55
2018-12-27T02:29:17.321Z,41.52
2018-12-27T02:30:17.610Z,41.5
2018-12-27T02:31:17.003Z,41.48
2018-12-27T02:32:16.974Z,41.49
2018-12-27T02:33:17.037Z,41.57
2018-12-27T02:34:16.970Z,41.59
2018-12-27T02:35:16.895Z,41.58
2018-12-27T02:36:16.976Z,41.54
2018-12-27T02:37:16.906Z,41.53
2018-12-27T02:38:23.931Z,41.5
2018-12-27T02:39:24.025Z,41.56
2018-12-27T02:40:24.726Z,41.53
2018-12-27T02:41:23.932Z,41.6
2018-12-27T02:42:23.936Z,41.53
2018-12-27T02:43:23.834Z,41.64
2018-12-27T02:44:23.761Z,41.47
2018-12-27T02:45:23.954Z,41.57
2018-12-27T02:46:24.218Z,41.58
2018-12-27T02:47:24.291Z,41.59
2018-12-27T02:48:23.879Z,41.54
2018-12-27T02:49:24.195Z,41.52
2018-12-27T02:50:23.889Z,41.55
2018-12-27T02:51:24.248Z,41.59
2018-12-27T02:52:23.735Z,41.53
2018-12-27T02:53:24.036Z,41.57
2018-12-27T02:54:23.927Z,41.61
2018-12-27T02:55:23.759Z,41.58
2018-12-27T02:56:23.758Z,41.52
2018-12-27T02:57:23.960Z,41.53
2018-12-27T02:58:24.058Z,41.57
2018-12-27T02:59:24.052Z,41.62
2018-12-27T03:00:23.877Z,41.51
2018-12-27T03:01:23.737Z,41.54
2018-12-27T03:02:23.771Z,41.5
2018-12-27T03:03:24.059Z,41.45
2018-12-27T03:04:24.129Z,41.52
2018-12-27T03:05:23.777Z,41.52
2018-12-27T03:06:24.025Z,41.57
2018-12-27T03:07:23.729Z,41.47
2018-12-27T03:08:23.773Z,41.5
2018-12-27T03:09:24.230Z,41.6
2018-12-27T03:10:24.106Z,41.54
2018-12-27T03:11:23.742Z,41.54
2018-12-27T03:12:23.898Z,41.5
2018-12-27T03:13:24.269Z,41.5
2018-12-27T03:14:23.806Z,41.52
2018-12-27T03:15:23.744Z,41.53
2018-12-27T03:16:24.210Z,41.45
2018-12-27T03:17:23.736Z,41.59
2018-12-27T03:18:24.206Z,41.6
2018-12-27T03:19:23.753Z,41.57
2018-12-27T03:20:23.697Z,41.58
2018-12-27T03:21:23.822Z,41.53
2018-12-27T03:22:23.935Z,41.56
2018-12-27T03:23:24.029Z,41.56
2018-12-27T03:24:23.852Z,41.53
2018-12-27T03:25:23.951Z,41.56
2018-12-27T03:26:23.751Z,41.63
2018-12-27T03:27:23.835Z,41.48
2018-12-27T03:28:23.862Z,41.45
2018-12-27T03:29:23.873Z,41.6
2018-12-27T03:30:23.877Z,41.55
2018-12-27T03:31:23.922Z,41.54
2018-12-27T03:32:23.754Z,41.55
2018-12-27T03:33:23.835Z,41.48
2018-12-27T03:34:23.793Z,41.48
2018-12-27T03:35:23.823Z,41.57
2018-12-27T03:36:23.747Z,41.46
2018-12-27T03:37:23.724Z,41.5
2018-12-27T03:38:23.766Z,41.62
2018-12-27T03:39:24.094Z,41.53
2018-12-27T03:40:23.840Z,41.53
2018-12-27T03:41:23.897Z,41.53
2018-12-27T03:42:23.804Z,41.54
2018-12-27T03:43:23.887Z,41.56
2018-12-27T03:44:23.909Z,41.52
2018-12-27T03:45:24.285Z,41.55
2018-12-27T03:46:23.974Z,41.55
2018-12-27T03:47:24.691Z,41.55
2018-12-27T03:48:23.796Z,41.57
2018-12-27T03:49:23.934Z,41.52
2018-12-27T03:50:24.224Z,41.54
2018-12-27T03:51:24.022Z,41.55
2018-12-27T03:52:24.246Z,41.59
2018-12-27T03:53:23.727Z,41.55
2018-12-27T03:54:23.878Z,41.59
2018-12-27T03:55:24.154Z,41.53
2018-12-27T03:56:23.832Z,41.51
2018-12-27T03:57:24.647Z,41.43
2018-12-27T03:58:23.820Z,41.47
2018-12-27T03:59:23.740Z,41.47
2018-12-27T04:00:24.092Z,41.5
2018-12-27T04:01:23.855Z,41.53
2018-12-27T04:02:24.003Z,41.51
2018-12-27T04:03:23.801Z,41.51
2018-12-27T04:04:23.928Z,41.5
2018-12-27T04:05:23.728Z,41.54
2018-12-27T04:06:23.927Z,41.55
2018-12-27T04:07:23.840Z,41.47
2018-12-27T04:08:24.050Z,41.54
2018-12-27T04:09:24.649Z,41.52
2018-12-27T04:10:23.783Z,41.49
2018-12-27T04:11:24.262Z,41.51
2018-12-27T04:12:23.726Z,41.57
2018-12-27T04:13:24.408Z,41.48
2018-12-27T04:14:24.679Z,41.53
2018-12-27T04:15:23.767Z,41.5
2018-12-27T04:16:23.737Z,41.58
2018-12-27T04:17:24.114Z,41.61
2018-12-27T04:18:24.934Z,41.54
2018-12-27T04:19:23.786Z,41.51
2018-12-27T04:20:24.028Z,41.54
2018-12-27T04:21:23.934Z,41.5
2018-12-27T04:22:23.733Z,41.56
2018-12-27T04:23:24.187Z,41.55
2018-12-27T04:24:23.723Z,41.51
2018-12-27T04:25:23.699Z,41.49
2018-12-27T04:26:23.863Z,41.51
2018-12-27T04:27:23.714Z,41.54
2018-12-27T04:28:23.749Z,41.49
2018-12-27T04:29:23.743Z,41.47
2018-12-27T04:30:23.704Z,41.49
2018-12-27T04:31:24.269Z,41.58
2018-12-27T04:32:23.702Z,41.54
2018-12-27T04:33:23.865Z,41.55
2018-12-27T04:34:23.894Z,41.52
2018-12-27T04:35:23.968Z,41.59
2018-12-27T04:36:24.170Z,41.59
2018-12-27T04:37:23.841Z,41.53
2018-12-27T04:38:23.842Z,41.54
2018-12-27T04:39:23.919Z,41.51
2018-12-27T04:40:23.728Z,41.51
2018-12-27T04:41:24.016Z,41.46
2018-12-27T04:42:23.723Z,41.44
2018-12-27T04:43:23.812Z,41.49
2018-12-27T04:44:24.110Z,41.58
2018-12-27T04:45:23.825Z,41.47
2018-12-27T04:46:23.745Z,41.45
2018-12-27T04:47:24.011Z,41.45
2018-12-27T04:48:23.699Z,41.51
2018-12-27T04:49:23.593Z,41.48
2018-12-27T04:50:23.836Z,41.48
2018-12-27T04:51:24.038Z,41.48
2018-12-27T04:52:23.823Z,41.45
2018-12-27T04:53:23.942Z,41.38
2018-12-27T04:54:24.170Z,41.42
2018-12-27T04:55:23.682Z,41.46
2018-12-27T04:56:23.689Z,41.49
2018-12-27T04:57:23.699Z,41.58
2018-12-27T04:58:23.799Z,41.56
2018-12-27T04:59:23.843Z,41.6
2018-12-27T05:00:24.027Z,41.62
2018-12-27T05:01:23.718Z,41.64
2018-12-27T05:02:23.872Z,41.68
2018-12-27T05:03:23.842Z,41.69
2018-12-27T05:04:23.826Z,41.65
2018-12-27T05:05:24.202Z,41.72
2018-12-27T05:06:23.683Z,41.73
2018-12-27T05:07:23.667Z,41.73
2018-12-27T05:08:23.991Z,41.72
2018-12-27T05:09:23.692Z,41.73
2018-12-27T05:10:24.425Z,41.75
2018-12-27T05:11:23.772Z,41.72
2018-12-27T05:12:23.812Z,41.74
2018-12-27T05:13:23.858Z,41.73
2018-12-27T05:14:23.783Z,41.64
2018-12-27T05:15:23.846Z,41.7
2018-12-27T05:16:24.136Z,41.66
2018-12-27T05:17:24.228Z,41.64
2018-12-27T05:18:23.893Z,41.59
2018-12-27T05:19:23.662Z,41.58
2018-12-27T05:20:23.871Z,41.55
2018-12-27T05:21:23.851Z,41.53
2018-12-27T05:22:23.864Z,41.55
2018-12-27T05:23:23.753Z,41.57
2018-12-27T05:24:24.085Z,41.56
2018-12-27T05:25:23.674Z,41.49
2018-12-27T05:26:23.682Z,41.45
2018-12-27T05:27:24.511Z,41.41
2018-12-27T05:28:23.817Z,41.45
2018-12-27T05:29:23.720Z,41.48
2018-12-27T05:30:23.953Z,41.51
2018-12-27T05:31:23.751Z,41.46
2018-12-27T05:32:23.827Z,41.49
2018-12-27T05:33:23.791Z,41.44
2018-12-27T05:34:26.628Z,41.44
2018-12-27T05:35:23.770Z,41.46
2018-12-27T05:36:24.054Z,41.41
2018-12-27T05:37:23.659Z,41.44
2018-12-27T05:38:23.983Z,41.48
2018-12-27T05:39:24.005Z,41.46
2018-12-27T05:40:23.686Z,41.42
2018-12-27T05:41:24.212Z,41.35
2018-12-27T05:42:23.734Z,41.39
2018-12-27T05:43:23.875Z,41.42
2018-12-27T05:44:23.830Z,41.41
2018-12-27T05:45:23.812Z,41.41
2018-12-27T05:46:24.035Z,41.38
2018-12-27T05:47:23.700Z,41.4
2018-12-27T05:48:24.033Z,41.41
2018-12-27T05:49:23.844Z,41.33
2018-12-27T05:50:23.972Z,41.37
2018-12-27T05:51:24.602Z,41.36
2018-12-27T05:52:23.977Z,41.34
2018-12-27T05:53:23.974Z,41.39
2018-12-27T05:54:24.006Z,41.37
2018-12-27T05:55:24.351Z,41.34
2018-12-27T05:56:23.671Z,41.31
2018-12-27T05:57:24.003Z,41.34
2018-12-27T05:58:23.959Z,41.33
2018-12-27T05:59:23.925Z,41.32
2018-12-27T06:00:23.941Z,41.34
2018-12-27T06:01:23.671Z,41.34
2018-12-27T06:02:23.728Z,41.33
2018-12-27T06:03:23.647Z,41.31
2018-12-27T06:04:23.787Z,41.32
2018-12-27T06:05:24.186Z,41.29
2018-12-27T06:06:23.680Z,41.29
2018-12-27T06:07:23.893Z,41.29
2018-12-27T06:08:23.677Z,41.32
2018-12-27T06:09:23.695Z,41.28
2018-12-27T06:10:23.736Z,41.27
2018-12-27T06:11:24.598Z,41.31
2018-12-27T06:12:24.008Z,41.31
2018-12-27T06:13:23.923Z,41.25
2018-12-27T06:14:23.909Z,41.29
2018-12-27T06:15:24.258Z,41.28
2018-12-27T06:16:23.673Z,41.3
2018-12-27T06:17:23.937Z,41.23
2018-12-27T06:18:23.714Z,41.18
2018-12-27T06:19:24.635Z,41.13
2018-12-27T06:20:23.697Z,41.21
2018-12-27T06:21:23.660Z,41.26
2018-12-27T06:22:23.961Z,41.22
2018-12-27T06:23:23.775Z,41.23
2018-12-27T06:24:23.805Z,41.2
2018-12-27T06:25:23.998Z,41.2
2018-12-27T06:26:23.911Z,41.19
2018-12-27T06:27:23.789Z,41.19
2018-12-27T06:28:23.801Z,41.18
2018-12-27T06:29:23.788Z,41.17
2018-12-27T06:30:23.826Z,41.16
2018-12-27T06:31:23.632Z,41.13
2018-12-27T06:32:23.711Z,41.18
2018-12-27T06:33:24.147Z,41.1
2018-12-27T06:34:23.644Z,41.13
2018-12-27T06:35:23.640Z,41.15
2018-12-27T06:36:23.913Z,41.08
2018-12-27T06:37:23.649Z,41.16
2018-12-27T06:38:23.676Z,41.13
2018-12-27T06:39:24.007Z,41.15
2018-12-27T06:40:24.141Z,41.15
2018-12-27T06:41:23.820Z,41.07
2018-12-27T06:42:23.672Z,41.13
2018-12-27T06:43:24.040Z,41.07
2018-12-27T06:44:23.662Z,41.13
2018-12-27T06:45:23.745Z,41.11
2018-12-27T06:46:23.682Z,41.08
2018-12-27T06:47:23.774Z,41.09
2018-12-27T06:48:23.807Z,41.05
2018-12-27T06:49:23.789Z,41.12
2018-12-27T06:50:23.808Z,41.05
2018-12-27T06:51:24.199Z,41.04
2018-12-27T06:52:23.873Z,41.07
2018-12-27T06:53:23.660Z,41.09
2018-12-27T06:54:23.803Z,41.06
2018-12-27T06:55:23.822Z,41.07
2018-12-27T06:56:23.898Z,41
2018-12-27T06:57:24.284Z,40.97
2018-12-27T06:58:23.914Z,41.04
2018-12-27T06:59:23.876Z,41.06
2018-12-27T07:00:24.044Z,40.98
2018-12-27T07:01:23.605Z,40.98
2018-12-27T07:02:23.642Z,40.98
2018-12-27T07:03:23.920Z,41
2018-12-27T07:04:24.592Z,41
2018-12-27T07:05:23.730Z,41.04
2018-12-27T07:06:23.821Z,40.95
2018-12-27T07:07:24.168Z,40.92
2018-12-27T07:08:24.120Z,41
2018-12-27T07:09:23.743Z,40.99
2018-12-27T07:10:23.993Z,40.97
2018-12-27T07:11:23.619Z,40.95
2018-12-27T07:12:23.830Z,40.97
2018-12-27T07:13:24.055Z,40.97
2018-12-27T07:14:24.043Z,40.92
2018-12-27T07:15:23.795Z,40.9
2018-12-27T07:16:23.696Z,40.96
2018-12-27T07:17:23.760Z,40.92
2018-12-27T07:18:24.578Z,40.91
2018-12-27T07:19:24.034Z,40.86
2018-12-27T07:20:23.671Z,40.9
2018-12-27T07:21:23.546Z,40.93
2018-12-27T07:22:23.658Z,40.9
2018-12-27T07:23:23.649Z,40.87
2018-12-27T07:24:23.723Z,40.82
2018-12-27T07:25:24.092Z,40.89
2018-12-27T07:26:23.645Z,40.83
2018-12-27T07:27:24.334Z,40.92
2018-12-27T07:28:23.970Z,40.81
2018-12-27T07:29:24.146Z,40.84
2018-12-27T07:30:23.766Z,40.86
2018-12-27T07:31:23.649Z,40.85
2018-12-27T07:32:23.761Z,40.87
2018-12-27T07:33:24.254Z,40.83
2018-12-27T07:34:23.676Z,40.84
2018-12-27T07:35:23.932Z,40.9
2018-12-27T07:36:24.211Z,40.82
2018-12-27T07:37:23.893Z,40.83
2018-12-27T07:38:23.736Z,40.86
2018-12-27T07:39:23.881Z,40.8
2018-12-27T07:40:23.770Z,40.8
2018-12-27T07:41:23.787Z,40.79
2018-12-27T07:42:23.567Z,40.86
2018-12-27T07:43:24.174Z,40.75
2018-12-27T07:44:23.974Z,40.75
2018-12-27T07:45:23.796Z,40.85
2018-12-27T07:46:23.650Z,40.79
2018-12-27T07:47:24.074Z,40.76
2018-12-27T07:48:23.927Z,40.75
2018-12-27T07:49:23.695Z,40.77
2018-12-27T07:50:23.819Z,40.72
2018-12-27T07:51:23.900Z,40.73
2018-12-27T07:52:23.539Z,40.77
2018-12-27T07:53:23.732Z,40.73
2018-12-27T07:54:23.935Z,40.73
2018-12-27T07:55:23.750Z,40.75
2018-12-27T07:56:23.521Z,40.75
2018-12-27T07:57:23.675Z,40.74
2018-12-27T07:58:23.676Z,40.71
2018-12-27T07:59:23.639Z,40.7
2018-12-27T08:00:24.564Z,40.71
2018-12-27T08:01:23.938Z,40.7
2018-12-27T08:02:24.556Z,40.67
2018-12-27T08:03:23.991Z,40.7
2018-12-27T08:04:23.635Z,40.71
2018-12-27T08:05:23.671Z,40.75
2018-12-27T08:06:23.639Z,40.7
2018-12-27T08:07:23.912Z,40.72
2018-12-27T08:08:23.637Z,40.72
2018-12-27T08:09:23.639Z,40.68
2018-12-27T08:10:23.750Z,40.7
2018-12-27T08:11:23.732Z,40.72
2018-12-27T08:12:24.163Z,40.72
2018-12-27T08:13:23.791Z,40.74
2018-12-27T08:14:24.163Z,40.72
2018-12-27T08:15:23.987Z,40.68
2018-12-27T08:16:23.812Z,40.71
2018-12-27T08:17:23.691Z,40.66
2018-12-27T08:18:23.671Z,40.75
2018-12-27T08:19:23.894Z,40.65
2018-12-27T08:20:23.747Z,40.68
2018-12-27T08:21:24.027Z,40.71
2018-12-27T08:22:23.717Z,40.69
2018-12-27T08:23:23.768Z,40.63
2018-12-27T08:24:23.754Z,40.66
2018-12-27T08:25:23.688Z,40.69
2018-12-27T08:26:23.696Z,40.72
2018-12-27T08:27:23.852Z,40.65
2018-12-27T08:28:23.949Z,40.61
2018-12-27T08:29:23.888Z,40.64
2018-12-27T08:30:23.663Z,40.66
2018-12-27T08:31:23.628Z,40.61
2018-12-27T08:32:23.611Z,40.63
2018-12-27T08:33:23.631Z,40.64
2018-12-27T08:34:23.694Z,40.67
2018-12-27T08:35:23.905Z,40.63
2018-12-27T08:36:23.753Z,40.6
2018-12-27T08:37:23.967Z,40.62
2018-12-27T08:38:23.618Z,40.65
2018-12-27T08:39:23.756Z,40.63
2018-12-27T08:40:23.920Z,40.65
2018-12-27T08:41:23.867Z,40.61
2018-12-27T08:42:23.846Z,40.65
2018-12-27T08:43:23.889Z,40.6
2018-12-27T08:44:23.995Z,40.53
2018-12-27T08:45:24.529Z,40.6
2018-12-27T08:46:23.907Z,40.72
2018-12-27T08:47:23.612Z,40.68
2018-12-27T08:48:23.917Z,40.51
2018-12-27T08:49:23.986Z,40.4
2018-12-27T08:50:23.726Z,39.96
2018-12-27T08:51:23.829Z,39.18
2018-12-27T08:52:23.638Z,38.82
2018-12-27T08:53:23.736Z,38.99
2018-12-27T08:54:24.098Z,38.9
2018-12-27T08:55:23.829Z,39.21
2018-12-27T08:56:23.955Z,39.6
2018-12-27T08:57:24.517Z,39.65
2018-12-27T08:58:23.662Z,39.75
2018-12-27T08:59:23.891Z,39.69
2018-12-27T09:00:23.992Z,39.75
2018-12-27T09:01:23.858Z,39.86
2018-12-27T09:02:23.747Z,39.84
2018-12-27T09:03:23.678Z,39.94
2018-12-27T09:04:23.620Z,39.92
2018-12-27T09:05:23.953Z,39.9
2018-12-27T09:06:23.742Z,39.98
2018-12-27T09:07:23.780Z,39.92
2018-12-27T09:08:23.773Z,40.02
2018-12-27T09:09:24.124Z,39.99
2018-12-27T09:10:23.768Z,40.08
2018-12-27T09:11:23.625Z,40.07
2018-12-27T09:12:23.602Z,40.1
2018-12-27T09:13:24.518Z,40.01
2018-12-27T09:14:23.850Z,40.06
2018-12-27T09:15:23.702Z,40.12
2018-12-27T09:16:23.584Z,40.12
2018-12-27T09:17:24.207Z,40.07
2018-12-27T09:18:24.501Z,40.11
2018-12-27T09:19:23.614Z,40.1
2018-12-27T09:20:23.788Z,40.07
2018-12-27T09:21:23.820Z,40.12
2018-12-27T09:22:23.959Z,40.13
2018-12-27T09:23:23.947Z,40.15
2018-12-27T09:24:23.957Z,40.13
2018-12-27T09:25:23.950Z,40.16
2018-12-27T09:26:24.324Z,40.16
2018-12-27T09:27:23.597Z,40.19
2018-12-27T09:28:23.611Z,40.12
2018-12-27T09:29:23.789Z,40.15
2018-12-27T09:30:23.707Z,40.12
2018-12-27T09:31:23.609Z,40.12
2018-12-27T09:32:24.026Z,40.16
2018-12-27T09:33:24.266Z,40.09
2018-12-27T09:34:23.946Z,40.13
2018-12-27T09:35:26.710Z,40.17
2018-12-27T09:36:23.703Z,40.12
2018-12-27T09:37:23.858Z,40.13
2018-12-27T09:38:24.162Z,40.17
2018-12-27T09:39:23.701Z,40.15
2018-12-27T09:40:23.656Z,40.26
2018-12-27T09:41:23.600Z,40.26
2018-12-27T09:42:24.302Z,39.65
2018-12-27T09:43:23.969Z,38.73
2018-12-27T09:44:23.689Z,38.45
2018-12-27T09:45:23.742Z,37.99
2018-12-27T09:46:23.774Z,38.29
2018-12-27T09:47:23.636Z,37.99
2018-12-27T09:48:23.667Z,38.12
2018-12-27T09:49:23.954Z,38.26
2018-12-27T09:50:23.595Z,38.56
2018-12-27T09:51:23.704Z,38.55
2018-12-27T09:52:23.659Z,38.6
2018-12-27T09:53:23.591Z,38.62
2018-12-27T09:54:23.763Z,38.63
2018-12-27T09:55:23.498Z,38.77
2018-12-27T09:56:23.795Z,38.45
2018-12-27T09:57:23.892Z,38.46
2018-12-27T09:58:23.891Z,38.48
2018-12-27T09:59:23.734Z,38.57
2018-12-27T10:00:23.717Z,38.71
2018-12-27T10:01:23.831Z,38.82
2018-12-27T10:02:23.577Z,38.9
2018-12-27T10:03:23.722Z,38.98
2018-12-27T10:04:23.557Z,39.1
2018-12-27T10:05:23.716Z,39.18
2018-12-27T10:06:23.764Z,39.21
2018-12-27T10:07:23.571Z,39.23
2018-12-27T10:08:23.786Z,38.67
2018-12-27T10:09:24.069Z,38.42
2018-12-27T10:10:23.709Z,38.64
2018-12-27T10:11:24.084Z,38.73
2018-12-27T10:12:23.914Z,38.69
2018-12-27T10:13:23.590Z,37.91
2018-12-27T10:14:23.618Z,37.88
2018-12-27T10:15:23.750Z,38.44
2018-12-27T10:16:23.919Z,38.83
2018-12-27T10:17:23.720Z,38.92
2018-12-27T10:18:23.951Z,39.03
2018-12-27T10:19:23.858Z,39.23
2018-12-27T10:20:23.732Z,39.16
2018-12-27T10:21:23.887Z,39.17
2018-12-27T10:22:23.613Z,39.02
2018-12-27T10:23:23.853Z,39.17
2018-12-27T10:24:23.568Z,38.68
2018-12-27T10:25:23.589Z,38.5
2018-12-27T10:26:23.883Z,38.03
2018-12-27T10:27:23.676Z,38.47
2018-12-27T10:28:23.585Z,38.61
2018-12-27T10:29:23.819Z,38.65
2018-12-27T10:30:23.709Z,38.78
2018-12-27T10:31:23.743Z,39.14
2018-12-27T10:32:16.252Z,40.21
2018-12-27T10:33:15.750Z,39.34
2018-12-27T10:34:15.842Z,39.2
2018-12-27T10:35:15.836Z,39.01
2018-12-27T10:36:15.824Z,39.04
2018-12-27T10:37:16.223Z,38.89
2018-12-27T10:38:15.872Z,38.9
2018-12-27T10:39:16.193Z,38.9
2018-12-27T10:40:16.537Z,38.82
2018-12-27T10:41:16.315Z,38.81
2018-12-27T10:42:16.528Z,38.79
2018-12-27T10:43:15.653Z,38.77
2018-12-27T10:44:16.123Z,38.75
2018-12-27T10:45:15.780Z,39.05
2018-12-27T10:46:15.734Z,38.81
2018-12-27T10:47:15.908Z,38.74
2018-12-27T10:48:16.271Z,38.75
2018-12-27T10:49:16.223Z,38.75
2018-12-27T10:50:16.196Z,38.73
2018-12-27T10:51:15.921Z,38.76
2018-12-27T10:52:15.677Z,38.72
2018-12-27T10:53:15.976Z,39.01
2018-12-27T10:54:15.684Z,38.84
2018-12-27T10:55:15.868Z,38.82
2018-12-27T10:56:15.692Z,38.88
2018-12-27T10:57:15.816Z,38.97
2018-12-27T10:58:15.867Z,38.87
2018-12-27T10:59:15.650Z,38.83
2018-12-27T11:00:16.043Z,38.84
2018-12-27T11:01:15.570Z,38.83
2018-12-27T11:02:15.666Z,38.82
2018-12-27T11:03:15.944Z,38.88
2018-12-27T11:04:15.631Z,38.89
2018-12-27T11:05:15.647Z,38.92
2018-12-27T11:06:15.618Z,38.93
2018-12-27T11:07:15.906Z,38.87
2018-12-27T11:08:15.888Z,39
2018-12-27T11:09:15.624Z,38.96
2018-12-27T11:10:16.030Z,38.94
2018-12-27T11:11:15.840Z,38.92
2018-12-27T11:12:15.864Z,39.04
2018-12-27T11:13:16.125Z,38.96
2018-12-27T11:14:16.260Z,38.99
2018-12-27T11:15:15.961Z,38.96
2018-12-27T11:16:15.655Z,38.95
2018-12-27T11:17:42.571Z,38.99
2018-12-27T11:18:42.249Z,38.97
2018-12-27T11:19:42.279Z,39.01
2018-12-27T11:21:15.401Z,39.03
2018-12-27T11:22:15.448Z,39.05
2018-12-27T11:23:15.364Z,39.04
2018-12-27T11:24:15.585Z,39.06
2018-12-27T11:25:15.872Z,39.02
2018-12-27T11:26:15.369Z,39.02
2018-12-27T11:27:12.041Z,39
2018-12-27T11:28:12.782Z,39.01
2018-12-27T11:29:11.919Z,38.98
2018-12-27T11:30:44.294Z,39.04
2018-12-27T11:31:44.309Z,39.05
2018-12-27T11:32:40.591Z,39
2018-12-27T11:33:40.243Z,39
2018-12-27T11:34:40.494Z,39
2018-12-27T11:35:40.481Z,39.04
2018-12-27T11:36:40.643Z,39.03
2018-12-27T11:37:40.542Z,39.03
2018-12-27T11:38:37.084Z,39.05
2018-12-27T11:39:37.078Z,39.09
2018-12-27T11:40:36.696Z,39.03
2018-12-27T11:41:36.723Z,39.1
2018-12-27T11:42:37.005Z,39.06
2018-12-27T11:43:37.457Z,39.03
2018-12-27T11:44:36.836Z,39.07
2018-12-27T11:45:36.523Z,39.08
2018-12-27T11:46:37.534Z,39.06
2018-12-27T11:47:16.178Z,39.06
2018-12-27T11:48:16.644Z,39.12
2018-12-27T11:49:15.895Z,39.13
2018-12-27T11:50:06.759Z,39.1
2018-12-27T11:51:06.923Z,39.11
2018-12-27T11:52:06.818Z,39
2018-12-27T11:53:06.666Z,38.91
2018-12-27T11:54:06.808Z,39.03
2018-12-27T11:55:06.624Z,39.07
2018-12-27T11:56:06.894Z,39.15
2018-12-27T11:57:06.831Z,39.13
2018-12-27T11:58:06.999Z,39.16
2018-12-27T11:59:06.987Z,39.18
2018-12-27T12:00:06.977Z,39.17
2018-12-27T12:01:06.729Z,39.13
2018-12-27T12:02:06.785Z,39.11
2018-12-27T12:03:07.030Z,39.07
2018-12-27T12:04:06.719Z,39.16
2018-12-27T12:05:06.649Z,39.13
2018-12-27T12:06:07.151Z,39.13
2018-12-27T12:07:06.704Z,39.18
2018-12-27T12:08:07.076Z,39.13
2018-12-27T12:09:06.940Z,39.12
2018-12-27T12:10:06.882Z,39.15
2018-12-27T12:11:06.671Z,39.14
2018-12-27T12:12:07.063Z,38.99
2018-12-27T12:13:06.974Z,39.09
2018-12-27T12:14:06.966Z,39.08
2018-12-27T12:15:07.476Z,39.02
2018-12-27T12:16:07.056Z,39.03
2018-12-27T12:17:06.898Z,38.88
2018-12-27T12:18:06.570Z,38.94
2018-12-27T12:19:06.842Z,38.93
2018-12-27T12:20:06.915Z,38.96
2018-12-27T12:21:07.253Z,38.91
2018-12-27T12:22:07.129Z,38.94
2018-12-27T12:23:06.677Z,38.87
2018-12-27T12:24:06.776Z,38.85
2018-12-27T12:25:06.859Z,38.88
2018-12-27T12:26:06.884Z,38.85
2018-12-27T12:27:06.720Z,38.83
2018-12-27T12:28:07.233Z,38.88
2018-12-27T12:29:06.715Z,38.88
2018-12-27T12:30:06.470Z,38.86
2018-12-27T12:31:06.660Z,38.88
2018-12-27T12:32:06.672Z,38.87
2018-12-27T12:33:07.034Z,38.86
2018-12-27T12:34:06.550Z,38.8
2018-12-27T12:35:06.717Z,38.83
2018-12-27T12:36:11.153Z,38.76
2018-12-27T12:37:14.361Z,38.92
2018-12-27T12:38:06.823Z,38.67
2018-12-27T12:39:06.843Z,38.74
2018-12-27T12:40:06.760Z,38.76
2018-12-27T12:41:06.980Z,38.87
2018-12-27T12:42:06.788Z,38.85
2018-12-27T12:43:06.668Z,38.85
2018-12-27T12:44:07.016Z,38.86
2018-12-27T12:45:06.558Z,38.93
2018-12-27T12:46:06.719Z,38.97
2018-12-27T12:47:07.039Z,38.92
2018-12-27T12:48:06.727Z,38.97
2018-12-27T12:49:06.772Z,38.96
2018-12-27T12:50:06.634Z,39
2018-12-27T12:51:06.832Z,38.95
2018-12-27T12:52:06.829Z,38.98
2018-12-27T12:53:06.836Z,39.02
2018-12-27T12:54:06.862Z,39
2018-12-27T12:55:06.834Z,38.99
2018-12-27T12:56:06.986Z,38.99
2018-12-27T12:57:06.881Z,39